sensor_id;sensor_type;location;lat;lon;timestamp;P1;durP1;ratioP1;P2;durP2;ratioP2
43118;SDS011;28729;49.838;8.650;2023-06-26T00:00:20;7.00;;;3.97;;
43118;SDS011;28729;49.838;8.650;2023-06-26T00:08:24;6.28;;;4.10;;
43118;SDS011;28729;49.838;8.650;2023-06-26T00:12:26;5.13;;;3.60;;
43118;SDS011;28729;49.838;8.650;2023-06-26T00:16:28;7.00;;;4.13;;
43118;SDS011;28729;49.838;8.650;2023-06-26T00:20:30;6.20;;;4.37;;
43118;SDS011;28729;49.838;8.650;2023-06-26T00:24:35;6.32;;;3.95;;
43118;SDS011;28729;49.838;8.650;2023-06-26T00:28:37;7.40;;;4.50;;
43118;SDS011;28729;49.838;8.650;2023-06-26T00:32:39;8.55;;;4.57;;
43118;SDS011;28729;49.838;8.650;2023-06-26T00:36:41;6.00;;;3.73;;
43118;SDS011;28729;49.838;8.650;2023-06-26T00:40:44;7.50;;;4.80;;
43118;SDS011;28729;49.838;8.650;2023-06-26T00:44:46;6.27;;;4.07;;
43118;SDS011;28729;49.838;8.650;2023-06-26T00:48:48;7.53;;;4.18;;
43118;SDS011;28729;49.838;8.650;2023-06-26T00:52:51;5.50;;;4.03;;
43118;SDS011;28729;49.838;8.650;2023-06-26T00:56:53;6.00;;;3.90;;
43118;SDS011;28729;49.838;8.650;2023-06-26T01:00:55;7.35;;;4.53;;
43118;SDS011;28729;49.838;8.650;2023-06-26T01:04:57;8.07;;;4.38;;
43118;SDS011;28729;49.838;8.650;2023-06-26T01:08:59;9.02;;;3.65;;
43118;SDS011;28729;49.838;8.650;2023-06-26T01:13:01;7.32;;;3.72;;
43118;SDS011;28729;49.838;8.650;2023-06-26T01:17:03;7.13;;;4.65;;
43118;SDS011;28729;49.838;8.650;2023-06-26T01:21:05;8.33;;;4.30;;
43118;SDS011;28729;49.838;8.650;2023-06-26T01:29:31;5.45;;;4.03;;
43118;SDS011;28729;49.838;8.650;2023-06-26T01:33:34;7.88;;;4.43;;
43118;SDS011;28729;49.838;8.650;2023-06-26T01:37:36;7.72;;;4.38;;
43118;SDS011;28729;49.838;8.650;2023-06-26T01:41:38;7.15;;;4.10;;
43118;SDS011;28729;49.838;8.650;2023-06-26T01:45:40;6.30;;;4.17;;
43118;SDS011;28729;49.838;8.650;2023-06-26T01:54:03;8.18;;;4.50;;
43118;SDS011;28729;49.838;8.650;2023-06-26T01:58:10;7.85;;;4.40;;
43118;SDS011;28729;49.838;8.650;2023-06-26T02:02:12;6.13;;;4.20;;
43118;SDS011;28729;49.838;8.650;2023-06-26T02:06:14;5.95;;;4.07;;
43118;SDS011;28729;49.838;8.650;2023-06-26T02:10:15;7.68;;;4.30;;
43118;SDS011;28729;49.838;8.650;2023-06-26T02:14:17;6.17;;;4.30;;
43118;SDS011;28729;49.838;8.650;2023-06-26T02:18:19;7.97;;;4.40;;
43118;SDS011;28729;49.838;8.650;2023-06-26T02:22:23;6.60;;;4.50;;
43118;SDS011;28729;49.838;8.650;2023-06-26T02:26:25;7.75;;;4.60;;
43118;SDS011;28729;49.838;8.650;2023-06-26T02:30:27;6.50;;;3.92;;
43118;SDS011;28729;49.838;8.650;2023-06-26T02:34:29;6.87;;;4.40;;
43118;SDS011;28729;49.838;8.650;2023-06-26T02:38:31;6.13;;;4.10;;
43118;SDS011;28729;49.838;8.650;2023-06-26T02:42:36;6.03;;;4.10;;
43118;SDS011;28729;49.838;8.650;2023-06-26T02:46:38;7.70;;;4.25;;
43118;SDS011;28729;49.838;8.650;2023-06-26T02:50:42;6.60;;;4.30;;
43118;SDS011;28729;49.838;8.650;2023-06-26T02:54:48;8.10;;;4.70;;
43118;SDS011;28729;49.838;8.650;2023-06-26T02:58:50;6.80;;;4.40;;
43118;SDS011;28729;49.838;8.650;2023-06-26T03:02:52;6.65;;;4.00;;
43118;SDS011;28729;49.838;8.650;2023-06-26T03:06:56;7.40;;;4.95;;
43118;SDS011;28729;49.838;8.650;2023-06-26T03:10:58;7.33;;;4.10;;
43118;SDS011;28729;49.838;8.650;2023-06-26T03:14:59;6.88;;;4.43;;
43118;SDS011;28729;49.838;8.650;2023-06-26T03:19:02;7.45;;;4.15;;
43118;SDS011;28729;49.838;8.650;2023-06-26T03:23:09;7.18;;;4.25;;
43118;SDS011;28729;49.838;8.650;2023-06-26T03:27:11;6.50;;;4.37;;
43118;SDS011;28729;49.838;8.650;2023-06-26T03:31:13;8.52;;;4.82;;
43118;SDS011;28729;49.838;8.650;2023-06-26T03:35:15;7.23;;;4.93;;
43118;SDS011;28729;49.838;8.650;2023-06-26T03:39:17;7.82;;;4.70;;
43118;SDS011;28729;49.838;8.650;2023-06-26T03:43:19;8.60;;;5.55;;
43118;SDS011;28729;49.838;8.650;2023-06-26T03:47:39;8.07;;;5.47;;
43118;SDS011;28729;49.838;8.650;2023-06-26T03:51:40;6.80;;;4.60;;
43118;SDS011;28729;49.838;8.650;2023-06-26T03:55:42;10.13;;;5.57;;
43118;SDS011;28729;49.838;8.650;2023-06-26T03:59:44;8.40;;;4.65;;
43118;SDS011;28729;49.838;8.650;2023-06-26T04:03:46;7.67;;;5.13;;
43118;SDS011;28729;49.838;8.650;2023-06-26T04:07:52;7.97;;;5.40;;
43118;SDS011;28729;49.838;8.650;2023-06-26T04:11:54;9.18;;;5.05;;
43118;SDS011;28729;49.838;8.650;2023-06-26T04:15:56;7.67;;;5.03;;
43118;SDS011;28729;49.838;8.650;2023-06-26T04:19:58;9.25;;;4.95;;
43118;SDS011;28729;49.838;8.650;2023-06-26T04:24:00;7.65;;;5.25;;
43118;SDS011;28729;49.838;8.650;2023-06-26T04:28:01;10.35;;;5.63;;
43118;SDS011;28729;49.838;8.650;2023-06-26T04:32:03;8.23;;;5.78;;
43118;SDS011;28729;49.838;8.650;2023-06-26T04:36:05;7.25;;;4.93;;
43118;SDS011;28729;49.838;8.650;2023-06-26T04:44:11;7.93;;;5.45;;
43118;SDS011;28729;49.838;8.650;2023-06-26T04:48:13;8.03;;;5.43;;
43118;SDS011;28729;49.838;8.650;2023-06-26T04:52:15;7.93;;;5.72;;
43118;SDS011;28729;49.838;8.650;2023-06-26T04:56:17;14.00;;;5.65;;
43118;SDS011;28729;49.838;8.650;2023-06-26T05:00:19;8.38;;;5.47;;
43118;SDS011;28729;49.838;8.650;2023-06-26T05:04:22;8.88;;;5.70;;
43118;SDS011;28729;49.838;8.650;2023-06-26T05:08:24;8.60;;;5.50;;
43118;SDS011;28729;49.838;8.650;2023-06-26T05:12:28;8.10;;;5.68;;
43118;SDS011;28729;49.838;8.650;2023-06-26T05:16:30;12.67;;;6.47;;
43118;SDS011;28729;49.838;8.650;2023-06-26T05:20:32;8.57;;;6.07;;
43118;SDS011;28729;49.838;8.650;2023-06-26T05:24:35;8.30;;;5.82;;
43118;SDS011;28729;49.838;8.650;2023-06-26T05:32:40;9.40;;;5.93;;
43118;SDS011;28729;49.838;8.650;2023-06-26T05:36:43;9.88;;;6.38;;
43118;SDS011;28729;49.838;8.650;2023-06-26T05:40:46;9.32;;;5.90;;
43118;SDS011;28729;49.838;8.650;2023-06-26T05:44:49;11.90;;;7.43;;
43118;SDS011;28729;49.838;8.650;2023-06-26T05:48:51;9.90;;;6.75;;
43118;SDS011;28729;49.838;8.650;2023-06-26T05:52:53;12.70;;;7.20;;
43118;SDS011;28729;49.838;8.650;2023-06-26T06:01:01;10.75;;;7.03;;
43118;SDS011;28729;49.838;8.650;2023-06-26T06:05:07;19.60;;;7.10;;
43118;SDS011;28729;49.838;8.650;2023-06-26T06:09:12;11.20;;;7.00;;
43118;SDS011;28729;49.838;8.650;2023-06-26T06:13:16;11.43;;;6.85;;
43118;SDS011;28729;49.838;8.650;2023-06-26T06:17:21;13.35;;;7.10;;
43118;SDS011;28729;49.838;8.650;2023-06-26T06:21:26;11.10;;;7.45;;
43118;SDS011;28729;49.838;8.650;2023-06-26T06:25:29;13.43;;;7.05;;
43118;SDS011;28729;49.838;8.650;2023-06-26T06:29:31;10.00;;;6.13;;
43118;SDS011;28729;49.838;8.650;2023-06-26T06:33:32;10.90;;;6.93;;
43118;SDS011;28729;49.838;8.650;2023-06-26T06:37:37;13.25;;;6.78;;
43118;SDS011;28729;49.838;8.650;2023-06-26T06:41:41;15.95;;;7.22;;
43118;SDS011;28729;49.838;8.650;2023-06-26T06:45:44;8.88;;;6.57;;
43118;SDS011;28729;49.838;8.650;2023-06-26T06:49:52;14.75;;;6.82;;
43118;SDS011;28729;49.838;8.650;2023-06-26T06:53:54;11.38;;;6.03;;
43118;SDS011;28729;49.838;8.650;2023-06-26T06:57:56;9.13;;;5.90;;
43118;SDS011;28729;49.838;8.650;2023-06-26T07:01:58;9.63;;;5.75;;
43118;SDS011;28729;49.838;8.650;2023-06-26T07:06:01;8.77;;;6.32;;
43118;SDS011;28729;49.838;8.650;2023-06-26T07:10:07;11.73;;;7.00;;
43118;SDS011;28729;49.838;8.650;2023-06-26T07:14:12;9.75;;;6.47;;
43118;SDS011;28729;49.838;8.650;2023-06-26T07:18:14;10.17;;;6.67;;
43118;SDS011;28729;49.838;8.650;2023-06-26T07:22:18;8.15;;;6.28;;
43118;SDS011;28729;49.838;8.650;2023-06-26T07:26:21;9.85;;;5.72;;
43118;SDS011;28729;49.838;8.650;2023-06-26T07:30:40;8.52;;;6.07;;
43118;SDS011;28729;49.838;8.650;2023-06-26T07:34:43;11.55;;;6.45;;
43118;SDS011;28729;49.838;8.650;2023-06-26T07:38:45;11.93;;;5.68;;
43118;SDS011;28729;49.838;8.650;2023-06-26T07:42:47;10.00;;;7.03;;
43118;SDS011;28729;49.838;8.650;2023-06-26T07:46:49;9.15;;;6.25;;
43118;SDS011;28729;49.838;8.650;2023-06-26T07:50:51;8.98;;;6.20;;
43118;SDS011;28729;49.838;8.650;2023-06-26T07:54:55;9.32;;;6.57;;
43118;SDS011;28729;49.838;8.650;2023-06-26T07:58:57;9.50;;;6.85;;
43118;SDS011;28729;49.838;8.650;2023-06-26T08:03:00;11.88;;;7.05;;
43118;SDS011;28729;49.838;8.650;2023-06-26T08:07:03;12.32;;;7.25;;
43118;SDS011;28729;49.838;8.650;2023-06-26T08:11:06;10.10;;;6.75;;
43118;SDS011;28729;49.838;8.650;2023-06-26T08:15:15;10.07;;;6.70;;
43118;SDS011;28729;49.838;8.650;2023-06-26T08:19:17;9.63;;;7.20;;
43118;SDS011;28729;49.838;8.650;2023-06-26T08:23:20;10.15;;;7.03;;
43118;SDS011;28729;49.838;8.650;2023-06-26T08:27:27;8.68;;;7.13;;
43118;SDS011;28729;49.838;8.650;2023-06-26T08:31:32;10.15;;;7.13;;
43118;SDS011;28729;49.838;8.650;2023-06-26T08:35:36;11.68;;;7.40;;
43118;SDS011;28729;49.838;8.650;2023-06-26T08:39:38;11.43;;;7.10;;
43118;SDS011;28729;49.838;8.650;2023-06-26T08:43:41;10.32;;;6.97;;
43118;SDS011;28729;49.838;8.650;2023-06-26T08:47:45;9.20;;;7.00;;
43118;SDS011;28729;49.838;8.650;2023-06-26T08:51:59;9.45;;;7.00;;
43118;SDS011;28729;49.838;8.650;2023-06-26T08:56:35;9.70;;;6.70;;
43118;SDS011;28729;49.838;8.650;2023-06-26T09:00:40;10.80;;;7.18;;
43118;SDS011;28729;49.838;8.650;2023-06-26T09:04:44;9.95;;;7.35;;
43118;SDS011;28729;49.838;8.650;2023-06-26T09:08:48;9.38;;;6.88;;
43118;SDS011;28729;49.838;8.650;2023-06-26T09:12:52;10.18;;;6.75;;
43118;SDS011;28729;49.838;8.650;2023-06-26T09:16:58;11.95;;;6.60;;
43118;SDS011;28729;49.838;8.650;2023-06-26T09:21:04;9.00;;;6.05;;
43118;SDS011;28729;49.838;8.650;2023-06-26T09:25:09;10.30;;;6.43;;
43118;SDS011;28729;49.838;8.650;2023-06-26T09:29:12;9.27;;;5.72;;
43118;SDS011;28729;49.838;8.650;2023-06-26T09:33:19;7.55;;;5.72;;
43118;SDS011;28729;49.838;8.650;2023-06-26T09:37:23;8.45;;;6.30;;
43118;SDS011;28729;49.838;8.650;2023-06-26T09:41:25;6.07;;;5.20;;
43118;SDS011;28729;49.838;8.650;2023-06-26T09:45:28;6.40;;;5.20;;
43118;SDS011;28729;49.838;8.650;2023-06-26T09:49:29;7.63;;;5.50;;
43118;SDS011;28729;49.838;8.650;2023-06-26T09:53:34;7.30;;;5.72;;
43118;SDS011;28729;49.838;8.650;2023-06-26T09:57:38;7.50;;;5.63;;
43118;SDS011;28729;49.838;8.650;2023-06-26T10:01:42;7.88;;;5.78;;
43118;SDS011;28729;49.838;8.650;2023-06-26T10:05:48;10.55;;;6.05;;
43118;SDS011;28729;49.838;8.650;2023-06-26T10:09:54;8.68;;;5.95;;
43118;SDS011;28729;49.838;8.650;2023-06-26T10:13:57;7.95;;;6.00;;
43118;SDS011;28729;49.838;8.650;2023-06-26T10:18:17;8.25;;;5.95;;
43118;SDS011;28729;49.838;8.650;2023-06-26T10:22:20;8.25;;;6.18;;
43118;SDS011;28729;49.838;8.650;2023-06-26T10:26:26;8.93;;;6.72;;
43118;SDS011;28729;49.838;8.650;2023-06-26T10:30:31;11.70;;;6.22;;
43118;SDS011;28729;49.838;8.650;2023-06-26T10:34:37;8.07;;;6.30;;
43118;SDS011;28729;49.838;8.650;2023-06-26T10:39:02;9.07;;;6.20;;
43118;SDS011;28729;49.838;8.650;2023-06-26T10:43:13;7.57;;;6.00;;
43118;SDS011;28729;49.838;8.650;2023-06-26T10:47:32;8.65;;;6.25;;
43118;SDS011;28729;49.838;8.650;2023-06-26T10:51:35;9.38;;;5.97;;
43118;SDS011;28729;49.838;8.650;2023-06-26T10:59:43;10.02;;;6.38;;
43118;SDS011;28729;49.838;8.650;2023-06-26T11:03:46;7.60;;;6.13;;
43118;SDS011;28729;49.838;8.650;2023-06-26T11:08:07;9.70;;;6.07;;
43118;SDS011;28729;49.838;8.650;2023-06-26T11:12:09;8.82;;;6.13;;
43118;SDS011;28729;49.838;8.650;2023-06-26T11:16:12;7.20;;;6.03;;
43118;SDS011;28729;49.838;8.650;2023-06-26T11:20:18;10.18;;;6.28;;
43118;SDS011;28729;49.838;8.650;2023-06-26T11:24:20;7.93;;;5.70;;
43118;SDS011;28729;49.838;8.650;2023-06-26T11:28:22;8.02;;;5.63;;
43118;SDS011;28729;49.838;8.650;2023-06-26T11:32:25;8.57;;;6.28;;
43118;SDS011;28729;49.838;8.650;2023-06-26T11:36:30;10.85;;;6.07;;
43118;SDS011;28729;49.838;8.650;2023-06-26T11:40:32;8.80;;;5.70;;
43118;SDS011;28729;49.838;8.650;2023-06-26T11:44:39;7.07;;;5.70;;
43118;SDS011;28729;49.838;8.650;2023-06-26T11:48:44;7.35;;;5.07;;
43118;SDS011;28729;49.838;8.650;2023-06-26T11:52:54;7.90;;;5.90;;
43118;SDS011;28729;49.838;8.650;2023-06-26T11:56:58;11.23;;;6.00;;
43118;SDS011;28729;49.838;8.650;2023-06-26T12:01:01;9.20;;;5.63;;
43118;SDS011;28729;49.838;8.650;2023-06-26T12:05:04;10.55;;;5.63;;
43118;SDS011;28729;49.838;8.650;2023-06-26T12:09:09;8.88;;;5.18;;
43118;SDS011;28729;49.838;8.650;2023-06-26T12:13:13;10.32;;;6.28;;
43118;SDS011;28729;49.838;8.650;2023-06-26T12:17:15;7.93;;;5.60;;
43118;SDS011;28729;49.838;8.650;2023-06-26T12:29:49;8.77;;;6.78;;
43118;SDS011;28729;49.838;8.650;2023-06-26T12:33:58;11.68;;;6.70;;
43118;SDS011;28729;49.838;8.650;2023-06-26T12:38:01;10.20;;;7.30;;
43118;SDS011;28729;49.838;8.650;2023-06-26T12:42:15;9.98;;;7.80;;
43118;SDS011;28729;49.838;8.650;2023-06-26T12:46:18;9.63;;;8.15;;
43118;SDS011;28729;49.838;8.650;2023-06-26T12:50:20;8.60;;;7.35;;
43118;SDS011;28729;49.838;8.650;2023-06-26T12:54:23;9.07;;;8.02;;
43118;SDS011;28729;49.838;8.650;2023-06-26T12:58:25;9.07;;;7.72;;
43118;SDS011;28729;49.838;8.650;2023-06-26T13:02:27;15.63;;;8.85;;
43118;SDS011;28729;49.838;8.650;2023-06-26T13:06:29;10.77;;;8.48;;
43118;SDS011;28729;49.838;8.650;2023-06-26T13:10:31;10.10;;;7.60;;
43118;SDS011;28729;49.838;8.650;2023-06-26T13:14:33;12.02;;;7.05;;
43118;SDS011;28729;49.838;8.650;2023-06-26T13:18:37;9.77;;;6.65;;
43118;SDS011;28729;49.838;8.650;2023-06-26T13:22:39;7.75;;;6.47;;
43118;SDS011;28729;49.838;8.650;2023-06-26T13:26:43;8.38;;;5.43;;
43118;SDS011;28729;49.838;8.650;2023-06-26T13:30:47;9.15;;;5.30;;
43118;SDS011;28729;49.838;8.650;2023-06-26T13:34:50;7.97;;;4.88;;
43118;SDS011;28729;49.838;8.650;2023-06-26T13:38:52;9.32;;;5.07;;
43118;SDS011;28729;49.838;8.650;2023-06-26T13:42:57;7.90;;;4.38;;
43118;SDS011;28729;49.838;8.650;2023-06-26T13:47:00;8.95;;;4.00;;
43118;SDS011;28729;49.838;8.650;2023-06-26T13:51:02;6.13;;;4.20;;
43118;SDS011;28729;49.838;8.650;2023-06-26T13:55:04;8.07;;;4.63;;
43118;SDS011;28729;49.838;8.650;2023-06-26T13:59:06;4.65;;;3.75;;
43118;SDS011;28729;49.838;8.650;2023-06-26T14:03:10;6.32;;;4.50;;
43118;SDS011;28729;49.838;8.650;2023-06-26T14:07:12;7.57;;;4.00;;
43118;SDS011;28729;49.838;8.650;2023-06-26T14:11:15;6.38;;;3.70;;
43118;SDS011;28729;49.838;8.650;2023-06-26T14:15:20;7.43;;;3.20;;
43118;SDS011;28729;49.838;8.650;2023-06-26T14:19:23;5.13;;;2.85;;
43118;SDS011;28729;49.838;8.650;2023-06-26T14:23:27;3.90;;;2.70;;
43118;SDS011;28729;49.838;8.650;2023-06-26T14:27:30;4.80;;;2.90;;
43118;SDS011;28729;49.838;8.650;2023-06-26T14:31:33;7.30;;;3.33;;
43118;SDS011;28729;49.838;8.650;2023-06-26T14:35:36;7.30;;;2.80;;
43118;SDS011;28729;49.838;8.650;2023-06-26T14:39:38;6.97;;;2.45;;
43118;SDS011;28729;49.838;8.650;2023-06-26T14:43:41;5.38;;;3.08;;
43118;SDS011;28729;49.838;8.650;2023-06-26T14:47:44;4.40;;;2.58;;
43118;SDS011;28729;49.838;8.650;2023-06-26T14:51:47;4.57;;;2.60;;
43118;SDS011;28729;49.838;8.650;2023-06-26T14:55:49;6.25;;;2.90;;
43118;SDS011;28729;49.838;8.650;2023-06-26T14:59:52;5.90;;;2.80;;
43118;SDS011;28729;49.838;8.650;2023-06-26T15:03:56;4.45;;;2.70;;
43118;SDS011;28729;49.838;8.650;2023-06-26T15:07:58;6.15;;;2.78;;
43118;SDS011;28729;49.838;8.650;2023-06-26T15:12:00;3.85;;;2.53;;
43118;SDS011;28729;49.838;8.650;2023-06-26T15:16:02;4.10;;;2.60;;
43118;SDS011;28729;49.838;8.650;2023-06-26T15:20:04;6.18;;;2.60;;
43118;SDS011;28729;49.838;8.650;2023-06-26T15:24:09;7.13;;;3.67;;
43118;SDS011;28729;49.838;8.650;2023-06-26T15:28:11;5.15;;;3.58;;
43118;SDS011;28729;49.838;8.650;2023-06-26T15:32:15;5.68;;;3.50;;
43118;SDS011;28729;49.838;8.650;2023-06-26T15:36:18;5.63;;;2.67;;
43118;SDS011;28729;49.838;8.650;2023-06-26T15:40:22;8.55;;;2.75;;
43118;SDS011;28729;49.838;8.650;2023-06-26T15:44:24;7.18;;;2.80;;
43118;SDS011;28729;49.838;8.650;2023-06-26T15:48:28;8.85;;;2.92;;
43118;SDS011;28729;49.838;8.650;2023-06-26T15:52:30;8.30;;;2.53;;
43118;SDS011;28729;49.838;8.650;2023-06-26T15:56:32;5.93;;;2.58;;
43118;SDS011;28729;49.838;8.650;2023-06-26T16:00:34;6.72;;;2.33;;
43118;SDS011;28729;49.838;8.650;2023-06-26T16:04:36;5.32;;;2.13;;
43118;SDS011;28729;49.838;8.650;2023-06-26T16:08:38;3.30;;;1.88;;
43118;SDS011;28729;49.838;8.650;2023-06-26T16:12:42;6.90;;;1.85;;
43118;SDS011;28729;49.838;8.650;2023-06-26T16:16:44;10.32;;;2.03;;
43118;SDS011;28729;49.838;8.650;2023-06-26T16:20:45;5.75;;;1.63;;
43118;SDS011;28729;49.838;8.650;2023-06-26T16:24:48;6.63;;;2.03;;
43118;SDS011;28729;49.838;8.650;2023-06-26T16:28:50;5.50;;;2.30;;
43118;SDS011;28729;49.838;8.650;2023-06-26T16:32:53;8.05;;;2.50;;
43118;SDS011;28729;49.838;8.650;2023-06-26T16:36:55;6.78;;;1.85;;
43118;SDS011;28729;49.838;8.650;2023-06-26T16:40:57;6.60;;;1.65;;
43118;SDS011;28729;49.838;8.650;2023-06-26T16:44:59;8.13;;;2.05;;
43118;SDS011;28729;49.838;8.650;2023-06-26T16:49:01;4.95;;;1.50;;
43118;SDS011;28729;49.838;8.650;2023-06-26T16:53:04;7.20;;;2.33;;
43118;SDS011;28729;49.838;8.650;2023-06-26T16:57:06;7.68;;;2.03;;
43118;SDS011;28729;49.838;8.650;2023-06-26T17:01:09;4.72;;;1.60;;
43118;SDS011;28729;49.838;8.650;2023-06-26T17:05:11;4.82;;;1.85;;
43118;SDS011;28729;49.838;8.650;2023-06-26T17:09:13;7.35;;;1.92;;
43118;SDS011;28729;49.838;8.650;2023-06-26T17:13:15;8.27;;;1.90;;
43118;SDS011;28729;49.838;8.650;2023-06-26T17:17:18;3.75;;;1.63;;
43118;SDS011;28729;49.838;8.650;2023-06-26T17:21:23;4.38;;;1.58;;
43118;SDS011;28729;49.838;8.650;2023-06-26T17:25:24;4.97;;;1.95;;
43118;SDS011;28729;49.838;8.650;2023-06-26T17:29:26;8.65;;;1.65;;
43118;SDS011;28729;49.838;8.650;2023-06-26T17:33:28;6.88;;;2.47;;
43118;SDS011;28729;49.838;8.650;2023-06-26T17:37:30;5.22;;;1.30;;
43118;SDS011;28729;49.838;8.650;2023-06-26T17:41:34;4.85;;;1.95;;
43118;SDS011;28729;49.838;8.650;2023-06-26T17:45:36;4.57;;;1.63;;
43118;SDS011;28729;49.838;8.650;2023-06-26T17:49:40;3.78;;;1.77;;
43118;SDS011;28729;49.838;8.650;2023-06-26T17:57:44;4.80;;;1.70;;
43118;SDS011;28729;49.838;8.650;2023-06-26T18:01:48;5.38;;;1.60;;
43118;SDS011;28729;49.838;8.650;2023-06-26T18:05:53;8.55;;;2.00;;
43118;SDS011;28729;49.838;8.650;2023-06-26T18:09:54;5.15;;;1.88;;
43118;SDS011;28729;49.838;8.650;2023-06-26T18:18:01;8.07;;;2.10;;
43118;SDS011;28729;49.838;8.650;2023-06-26T18:22:03;6.18;;;1.92;;
43118;SDS011;28729;49.838;8.650;2023-06-26T18:26:05;3.78;;;1.67;;
43118;SDS011;28729;49.838;8.650;2023-06-26T18:30:08;4.68;;;1.77;;
43118;SDS011;28729;49.838;8.650;2023-06-26T18:34:12;4.50;;;1.60;;
43118;SDS011;28729;49.838;8.650;2023-06-26T18:38:15;8.63;;;1.80;;
43118;SDS011;28729;49.838;8.650;2023-06-26T18:42:17;5.87;;;2.10;;
43118;SDS011;28729;49.838;8.650;2023-06-26T18:46:20;6.40;;;1.38;;
43118;SDS011;28729;49.838;8.650;2023-06-26T18:50:24;3.50;;;1.52;;
43118;SDS011;28729;49.838;8.650;2023-06-26T18:54:31;5.72;;;1.77;;
43118;SDS011;28729;49.838;8.650;2023-06-26T18:58:35;4.07;;;2.00;;
43118;SDS011;28729;49.838;8.650;2023-06-26T19:02:38;2.65;;;1.30;;
43118;SDS011;28729;49.838;8.650;2023-06-26T19:06:43;4.25;;;1.60;;
43118;SDS011;28729;49.838;8.650;2023-06-26T19:10:45;3.53;;;1.33;;
43118;SDS011;28729;49.838;8.650;2023-06-26T19:22:58;4.22;;;1.58;;
43118;SDS011;28729;49.838;8.650;2023-06-26T19:27:02;3.95;;;1.70;;
43118;SDS011;28729;49.838;8.650;2023-06-26T19:35:10;5.22;;;1.50;;
43118;SDS011;28729;49.838;8.650;2023-06-26T19:39:14;6.28;;;1.55;;
43118;SDS011;28729;49.838;8.650;2023-06-26T19:43:33;4.20;;;1.52;;
43118;SDS011;28729;49.838;8.650;2023-06-26T19:47:35;7.88;;;2.45;;
43118;SDS011;28729;49.838;8.650;2023-06-26T19:51:38;7.57;;;2.00;;
43118;SDS011;28729;49.838;8.650;2023-06-26T19:55:40;6.07;;;1.57;;
43118;SDS011;28729;49.838;8.650;2023-06-26T19:59:42;3.10;;;1.30;;
43118;SDS011;28729;49.838;8.650;2023-06-26T20:03:45;9.05;;;2.40;;
43118;SDS011;28729;49.838;8.650;2023-06-26T20:07:47;3.83;;;1.63;;
43118;SDS011;28729;49.838;8.650;2023-06-26T20:11:53;6.88;;;1.70;;
43118;SDS011;28729;49.838;8.650;2023-06-26T20:15:55;6.25;;;1.80;;
43118;SDS011;28729;49.838;8.650;2023-06-26T20:24:08;3.17;;;1.35;;
43118;SDS011;28729;49.838;8.650;2023-06-26T20:28:10;5.78;;;1.90;;
43118;SDS011;28729;49.838;8.650;2023-06-26T20:32:13;4.22;;;1.55;;
43118;SDS011;28729;49.838;8.650;2023-06-26T20:36:15;3.40;;;1.40;;
43118;SDS011;28729;49.838;8.650;2023-06-26T20:40:17;6.93;;;1.75;;
43118;SDS011;28729;49.838;8.650;2023-06-26T20:44:19;7.72;;;1.45;;
43118;SDS011;28729;49.838;8.650;2023-06-26T20:48:22;4.18;;;1.60;;
43118;SDS011;28729;49.838;8.650;2023-06-26T20:52:26;5.78;;;1.77;;
43118;SDS011;28729;49.838;8.650;2023-06-26T20:56:29;3.50;;;1.60;;
43118;SDS011;28729;49.838;8.650;2023-06-26T21:00:31;3.77;;;1.50;;
43118;SDS011;28729;49.838;8.650;2023-06-26T21:04:33;7.82;;;1.38;;
43118;SDS011;28729;49.838;8.650;2023-06-26T21:08:38;5.35;;;1.77;;
43118;SDS011;28729;49.838;8.650;2023-06-26T21:12:41;5.03;;;1.60;;
43118;SDS011;28729;49.838;8.650;2023-06-26T21:16:45;2.88;;;1.38;;
43118;SDS011;28729;49.838;8.650;2023-06-26T21:20:47;4.13;;;1.65;;
43118;SDS011;28729;49.838;8.650;2023-06-26T21:24:49;4.67;;;1.40;;
43118;SDS011;28729;49.838;8.650;2023-06-26T21:28:51;5.90;;;1.85;;
43118;SDS011;28729;49.838;8.650;2023-06-26T21:32:53;3.80;;;1.30;;
43118;SDS011;28729;49.838;8.650;2023-06-26T21:36:56;6.47;;;1.65;;
43118;SDS011;28729;49.838;8.650;2023-06-26T21:40:58;10.43;;;1.92;;
43118;SDS011;28729;49.838;8.650;2023-06-26T21:45:00;4.68;;;1.65;;
43118;SDS011;28729;49.838;8.650;2023-06-26T21:49:04;4.43;;;1.40;;
43118;SDS011;28729;49.838;8.650;2023-06-26T21:53:06;5.63;;;1.58;;
43118;SDS011;28729;49.838;8.650;2023-06-26T21:57:08;4.83;;;1.50;;
43118;SDS011;28729;49.838;8.650;2023-06-26T22:01:11;4.00;;;1.42;;
43118;SDS011;28729;49.838;8.650;2023-06-26T22:05:13;5.63;;;1.67;;
43118;SDS011;28729;49.838;8.650;2023-06-26T22:09:15;7.25;;;1.45;;
43118;SDS011;28729;49.838;8.650;2023-06-26T22:13:17;5.00;;;1.80;;
43118;SDS011;28729;49.838;8.650;2023-06-26T22:17:19;3.80;;;1.33;;
43118;SDS011;28729;49.838;8.650;2023-06-26T22:21:20;5.90;;;1.40;;
43118;SDS011;28729;49.838;8.650;2023-06-26T22:25:22;6.82;;;1.55;;
43118;SDS011;28729;49.838;8.650;2023-06-26T22:29:24;6.00;;;1.77;;
43118;SDS011;28729;49.838;8.650;2023-06-26T22:33:27;3.60;;;1.50;;
43118;SDS011;28729;49.838;8.650;2023-06-26T22:37:29;5.43;;;1.70;;
43118;SDS011;28729;49.838;8.650;2023-06-26T22:41:31;3.37;;;1.37;;
43118;SDS011;28729;49.838;8.650;2023-06-26T22:45:32;5.78;;;1.55;;
43118;SDS011;28729;49.838;8.650;2023-06-26T22:49:34;4.60;;;1.90;;
43118;SDS011;28729;49.838;8.650;2023-06-26T22:53:37;3.97;;;1.42;;
43118;SDS011;28729;49.838;8.650;2023-06-26T22:57:39;4.55;;;1.70;;
43118;SDS011;28729;49.838;8.650;2023-06-26T23:01:41;4.70;;;1.70;;
43118;SDS011;28729;49.838;8.650;2023-06-26T23:05:43;2.85;;;1.30;;
43118;SDS011;28729;49.838;8.650;2023-06-26T23:09:44;4.28;;;1.70;;
43118;SDS011;28729;49.838;8.650;2023-06-26T23:13:46;4.55;;;1.80;;
43118;SDS011;28729;49.838;8.650;2023-06-26T23:17:48;3.00;;;1.27;;
43118;SDS011;28729;49.838;8.650;2023-06-26T23:21:50;5.10;;;1.60;;
43118;SDS011;28729;49.838;8.650;2023-06-26T23:25:55;3.65;;;1.50;;
43118;SDS011;28729;49.838;8.650;2023-06-26T23:29:57;4.03;;;1.50;;
43118;SDS011;28729;49.838;8.650;2023-06-26T23:33:59;5.28;;;1.60;;
43118;SDS011;28729;49.838;8.650;2023-06-26T23:38:00;5.97;;;1.30;;
43118;SDS011;28729;49.838;8.650;2023-06-26T23:42:02;3.13;;;1.87;;
43118;SDS011;28729;49.838;8.650;2023-06-26T23:46:05;5.10;;;1.65;;
43118;SDS011;28729;49.838;8.650;2023-06-26T23:50:12;5.85;;;1.67;;
43118;SDS011;28729;49.838;8.650;2023-06-26T23:54:14;5.20;;;1.73;;
